sensor_id;sensor_type;location;lat;lon;timestamp;P1;durP1;ratioP1;P2;durP2;ratioP2
69573;SDS011;62840;52.366;5.980;2022-08-25T00:00:58;7.35;;;4.82;;
69573;SDS011;62840;52.366;5.980;2022-08-25T00:03:26;6.87;;;4.93;;
69573;SDS011;62840;52.366;5.980;2022-08-25T00:05:52;6.72;;;4.88;;
69573;SDS011;62840;52.366;5.980;2022-08-25T00:08:18;5.93;;;5.20;;
69573;SDS011;62840;52.366;5.980;2022-08-25T00:10:44;7.83;;;5.20;;
69573;SDS011;62840;52.366;5.980;2022-08-25T00:13:09;5.95;;;5.03;;
69573;SDS011;62840;52.366;5.980;2022-08-25T00:15:35;7.37;;;5.20;;
69573;SDS011;62840;52.366;5.980;2022-08-25T00:18:01;6.40;;;4.88;;
69573;SDS011;62840;52.366;5.980;2022-08-25T00:20:29;6.60;;;4.82;;
69573;SDS011;62840;52.366;5.980;2022-08-25T00:22:56;6.18;;;4.93;;
69573;SDS011;62840;52.366;5.980;2022-08-25T00:25:22;9.25;;;5.32;;
69573;SDS011;62840;52.366;5.980;2022-08-25T00:27:48;8.45;;;5.00;;
69573;SDS011;62840;52.366;5.980;2022-08-25T00:30:15;8.05;;;5.15;;
69573;SDS011;62840;52.366;5.980;2022-08-25T00:32:42;7.00;;;5.10;;
69573;SDS011;62840;52.366;5.980;2022-08-25T00:35:09;7.13;;;5.40;;
69573;SDS011;62840;52.366;5.980;2022-08-25T00:37:37;7.78;;;5.25;;
69573;SDS011;62840;52.366;5.980;2022-08-25T00:40:04;6.38;;;4.80;;
69573;SDS011;62840;52.366;5.980;2022-08-25T00:42:31;7.63;;;5.17;;
69573;SDS011;62840;52.366;5.980;2022-08-25T00:44:57;6.43;;;4.93;;
69573;SDS011;62840;52.366;5.980;2022-08-25T00:47:22;6.30;;;5.40;;
69573;SDS011;62840;52.366;5.980;2022-08-25T00:49:50;7.35;;;5.10;;
69573;SDS011;62840;52.366;5.980;2022-08-25T00:52:21;8.38;;;5.45;;
69573;SDS011;62840;52.366;5.980;2022-08-25T00:54:55;5.63;;;4.70;;
69573;SDS011;62840;52.366;5.980;2022-08-25T00:57:25;5.88;;;4.90;;
69573;SDS011;62840;52.366;5.980;2022-08-25T00:59:57;7.60;;;4.60;;
69573;SDS011;62840;52.366;5.980;2022-08-25T01:02:23;5.80;;;5.18;;
69573;SDS011;62840;52.366;5.980;2022-08-25T01:04:49;7.60;;;5.43;;
69573;SDS011;62840;52.366;5.980;2022-08-25T01:07:16;7.53;;;5.60;;
69573;SDS011;62840;52.366;5.980;2022-08-25T01:09:44;6.05;;;4.85;;
69573;SDS011;62840;52.366;5.980;2022-08-25T01:12:15;8.65;;;5.65;;
69573;SDS011;62840;52.366;5.980;2022-08-25T01:14:42;8.23;;;5.40;;
69573;SDS011;62840;52.366;5.980;2022-08-25T01:17:10;6.40;;;4.72;;
69573;SDS011;62840;52.366;5.980;2022-08-25T01:19:36;6.07;;;5.37;;
69573;SDS011;62840;52.366;5.980;2022-08-25T01:22:04;6.70;;;5.30;;
69573;SDS011;62840;52.366;5.980;2022-08-25T01:24:34;7.25;;;5.60;;
69573;SDS011;62840;52.366;5.980;2022-08-25T01:27:06;6.50;;;5.10;;
69573;SDS011;62840;52.366;5.980;2022-08-25T01:29:34;7.87;;;5.50;;
69573;SDS011;62840;52.366;5.980;2022-08-25T01:32:02;7.70;;;5.57;;
69573;SDS011;62840;52.366;5.980;2022-08-25T01:34:34;7.72;;;5.95;;
69573;SDS011;62840;52.366;5.980;2022-08-25T01:37:05;8.15;;;5.60;;
69573;SDS011;62840;52.366;5.980;2022-08-25T01:39:33;7.28;;;5.55;;
69573;SDS011;62840;52.366;5.980;2022-08-25T01:42:06;7.30;;;5.50;;
69573;SDS011;62840;52.366;5.980;2022-08-25T01:44:43;7.28;;;5.40;;
69573;SDS011;62840;52.366;5.980;2022-08-25T01:47:11;7.32;;;5.32;;
69573;SDS011;62840;52.366;5.980;2022-08-25T01:49:39;7.88;;;5.30;;
69573;SDS011;62840;52.366;5.980;2022-08-25T01:52:09;7.37;;;5.67;;
69573;SDS011;62840;52.366;5.980;2022-08-25T01:54:40;7.93;;;5.47;;
69573;SDS011;62840;52.366;5.980;2022-08-25T01:57:06;6.90;;;5.78;;
69573;SDS011;62840;52.366;5.980;2022-08-25T01:59:32;6.70;;;5.60;;
69573;SDS011;62840;52.366;5.980;2022-08-25T02:01:57;8.07;;;5.57;;
69573;SDS011;62840;52.366;5.980;2022-08-25T02:04:23;10.82;;;7.07;;
69573;SDS011;62840;52.366;5.980;2022-08-25T02:06:49;7.93;;;5.60;;
69573;SDS011;62840;52.366;5.980;2022-08-25T02:09:17;8.40;;;6.03;;
69573;SDS011;62840;52.366;5.980;2022-08-25T02:11:44;8.23;;;5.67;;
69573;SDS011;62840;52.366;5.980;2022-08-25T02:14:11;7.47;;;5.80;;
69573;SDS011;62840;52.366;5.980;2022-08-25T02:16:39;7.95;;;5.90;;
69573;SDS011;62840;52.366;5.980;2022-08-25T02:19:10;7.78;;;5.75;;
69573;SDS011;62840;52.366;5.980;2022-08-25T02:21:36;6.55;;;5.75;;
69573;SDS011;62840;52.366;5.980;2022-08-25T02:24:03;10.30;;;5.43;;
69573;SDS011;62840;52.366;5.980;2022-08-25T02:26:33;8.07;;;5.60;;
69573;SDS011;62840;52.366;5.980;2022-08-25T02:28:59;7.63;;;5.30;;
69573;SDS011;62840;52.366;5.980;2022-08-25T02:31:25;8.20;;;5.65;;
69573;SDS011;62840;52.366;5.980;2022-08-25T02:33:51;7.78;;;5.10;;
69573;SDS011;62840;52.366;5.980;2022-08-25T02:36:18;7.40;;;5.65;;
69573;SDS011;62840;52.366;5.980;2022-08-25T02:38:46;10.77;;;6.15;;
69573;SDS011;62840;52.366;5.980;2022-08-25T02:41:14;8.55;;;5.57;;
69573;SDS011;62840;52.366;5.980;2022-08-25T02:43:47;7.07;;;5.90;;
69573;SDS011;62840;52.366;5.980;2022-08-25T02:46:14;8.15;;;5.47;;
69573;SDS011;62840;52.366;5.980;2022-08-25T02:48:42;10.15;;;5.72;;
69573;SDS011;62840;52.366;5.980;2022-08-25T02:51:08;12.93;;;6.03;;
69573;SDS011;62840;52.366;5.980;2022-08-25T02:53:35;12.43;;;5.83;;
69573;SDS011;62840;52.366;5.980;2022-08-25T02:56:03;8.45;;;5.93;;
69573;SDS011;62840;52.366;5.980;2022-08-25T02:58:32;8.98;;;5.80;;
69573;SDS011;62840;52.366;5.980;2022-08-25T03:01:00;10.25;;;6.18;;
69573;SDS011;62840;52.366;5.980;2022-08-25T03:03:26;8.00;;;5.82;;
69573;SDS011;62840;52.366;5.980;2022-08-25T03:05:53;7.68;;;6.35;;
69573;SDS011;62840;52.366;5.980;2022-08-25T03:08:19;9.05;;;5.57;;
69573;SDS011;62840;52.366;5.980;2022-08-25T03:10:44;8.53;;;6.20;;
69573;SDS011;62840;52.366;5.980;2022-08-25T03:13:10;8.77;;;5.82;;
69573;SDS011;62840;52.366;5.980;2022-08-25T03:15:36;8.03;;;5.70;;
69573;SDS011;62840;52.366;5.980;2022-08-25T03:18:04;8.80;;;5.75;;
69573;SDS011;62840;52.366;5.980;2022-08-25T03:20:30;7.75;;;5.65;;
69573;SDS011;62840;52.366;5.980;2022-08-25T03:22:56;7.57;;;5.60;;
69573;SDS011;62840;52.366;5.980;2022-08-25T03:25:22;6.60;;;5.70;;
69573;SDS011;62840;52.366;5.980;2022-08-25T03:27:47;7.07;;;5.63;;
69573;SDS011;62840;52.366;5.980;2022-08-25T03:30:14;10.40;;;6.13;;
69573;SDS011;62840;52.366;5.980;2022-08-25T03:32:40;8.18;;;5.88;;
69573;SDS011;62840;52.366;5.980;2022-08-25T03:35:09;7.55;;;5.90;;
69573;SDS011;62840;52.366;5.980;2022-08-25T03:37:36;7.50;;;6.20;;
69573;SDS011;62840;52.366;5.980;2022-08-25T03:40:02;8.45;;;6.18;;
69573;SDS011;62840;52.366;5.980;2022-08-25T03:42:30;7.47;;;5.78;;
69573;SDS011;62840;52.366;5.980;2022-08-25T03:44:56;7.87;;;5.60;;
69573;SDS011;62840;52.366;5.980;2022-08-25T03:47:22;8.30;;;5.85;;
69573;SDS011;62840;52.366;5.980;2022-08-25T03:49:49;6.65;;;5.63;;
69573;SDS011;62840;52.366;5.980;2022-08-25T03:52:17;8.63;;;5.55;;
69573;SDS011;62840;52.366;5.980;2022-08-25T03:54:43;7.85;;;5.47;;
69573;SDS011;62840;52.366;5.980;2022-08-25T03:57:10;8.90;;;5.60;;
69573;SDS011;62840;52.366;5.980;2022-08-25T03:59:36;7.88;;;5.60;;
69573;SDS011;62840;52.366;5.980;2022-08-25T04:02:03;7.13;;;5.90;;
69573;SDS011;62840;52.366;5.980;2022-08-25T04:04:29;8.13;;;5.50;;
69573;SDS011;62840;52.366;5.980;2022-08-25T04:06:55;7.05;;;5.40;;
69573;SDS011;62840;52.366;5.980;2022-08-25T04:09:24;6.72;;;5.20;;
69573;SDS011;62840;52.366;5.980;2022-08-25T04:11:51;7.68;;;5.65;;
69573;SDS011;62840;52.366;5.980;2022-08-25T04:14:17;7.75;;;5.68;;
69573;SDS011;62840;52.366;5.980;2022-08-25T04:16:43;8.68;;;5.50;;
69573;SDS011;62840;52.366;5.980;2022-08-25T04:19:09;8.80;;;5.55;;
69573;SDS011;62840;52.366;5.980;2022-08-25T04:21:35;7.85;;;5.70;;
69573;SDS011;62840;52.366;5.980;2022-08-25T04:24:03;7.10;;;5.95;;
69573;SDS011;62840;52.366;5.980;2022-08-25T04:26:37;8.77;;;5.50;;
69573;SDS011;62840;52.366;5.980;2022-08-25T04:29:07;7.32;;;5.28;;
69573;SDS011;62840;52.366;5.980;2022-08-25T04:31:34;7.55;;;5.30;;
69573;SDS011;62840;52.366;5.980;2022-08-25T04:34:04;6.47;;;5.28;;
69573;SDS011;62840;52.366;5.980;2022-08-25T04:36:31;8.60;;;5.57;;
69573;SDS011;62840;52.366;5.980;2022-08-25T04:38:58;7.77;;;5.33;;
69573;SDS011;62840;52.366;5.980;2022-08-25T04:41:24;7.40;;;5.65;;
69573;SDS011;62840;52.366;5.980;2022-08-25T04:43:54;7.30;;;5.80;;
69573;SDS011;62840;52.366;5.980;2022-08-25T04:46:22;6.82;;;5.25;;
69573;SDS011;62840;52.366;5.980;2022-08-25T04:48:52;7.53;;;5.33;;
69573;SDS011;62840;52.366;5.980;2022-08-25T04:51:23;7.35;;;5.28;;
69573;SDS011;62840;52.366;5.980;2022-08-25T04:53:52;9.02;;;5.60;;
69573;SDS011;62840;52.366;5.980;2022-08-25T04:56:19;7.40;;;5.05;;
69573;SDS011;62840;52.366;5.980;2022-08-25T04:58:47;7.70;;;5.25;;
69573;SDS011;62840;52.366;5.980;2022-08-25T05:01:18;7.63;;;5.37;;
69573;SDS011;62840;52.366;5.980;2022-08-25T05:03:50;7.00;;;4.97;;
69573;SDS011;62840;52.366;5.980;2022-08-25T05:06:20;7.70;;;5.25;;
69573;SDS011;62840;52.366;5.980;2022-08-25T05:08:46;7.43;;;5.38;;
69573;SDS011;62840;52.366;5.980;2022-08-25T05:11:13;9.30;;;5.55;;
69573;SDS011;62840;52.366;5.980;2022-08-25T05:13:40;8.30;;;5.30;;
69573;SDS011;62840;52.366;5.980;2022-08-25T05:16:05;7.10;;;4.90;;
69573;SDS011;62840;52.366;5.980;2022-08-25T05:18:35;8.43;;;5.03;;
69573;SDS011;62840;52.366;5.980;2022-08-25T05:21:01;9.93;;;5.22;;
69573;SDS011;62840;52.366;5.980;2022-08-25T05:23:29;7.38;;;5.40;;
69573;SDS011;62840;52.366;5.980;2022-08-25T05:26:00;10.70;;;6.43;;
69573;SDS011;62840;52.366;5.980;2022-08-25T05:28:28;8.18;;;5.32;;
69573;SDS011;62840;52.366;5.980;2022-08-25T05:30:56;7.17;;;5.00;;
69573;SDS011;62840;52.366;5.980;2022-08-25T05:33:24;7.75;;;5.22;;
69573;SDS011;62840;52.366;5.980;2022-08-25T05:35:53;6.38;;;5.00;;
69573;SDS011;62840;52.366;5.980;2022-08-25T05:38:19;6.40;;;4.78;;
69573;SDS011;62840;52.366;5.980;2022-08-25T05:40:45;7.70;;;5.10;;
69573;SDS011;62840;52.366;5.980;2022-08-25T05:43:10;7.03;;;5.07;;
69573;SDS011;62840;52.366;5.980;2022-08-25T05:45:37;6.32;;;5.20;;
69573;SDS011;62840;52.366;5.980;2022-08-25T05:48:02;7.15;;;4.97;;
69573;SDS011;62840;52.366;5.980;2022-08-25T05:50:28;6.57;;;5.00;;
69573;SDS011;62840;52.366;5.980;2022-08-25T05:52:57;6.28;;;4.68;;
69573;SDS011;62840;52.366;5.980;2022-08-25T05:55:22;6.20;;;4.57;;
69573;SDS011;62840;52.366;5.980;2022-08-25T05:57:48;8.27;;;4.83;;
69573;SDS011;62840;52.366;5.980;2022-08-25T06:00:14;7.93;;;4.68;;
69573;SDS011;62840;52.366;5.980;2022-08-25T06:02:41;8.00;;;5.05;;
69573;SDS011;62840;52.366;5.980;2022-08-25T06:05:08;7.45;;;4.57;;
69573;SDS011;62840;52.366;5.980;2022-08-25T06:07:36;6.53;;;4.63;;
69573;SDS011;62840;52.366;5.980;2022-08-25T06:10:05;8.63;;;4.70;;
69573;SDS011;62840;52.366;5.980;2022-08-25T06:12:33;8.40;;;5.15;;
69573;SDS011;62840;52.366;5.980;2022-08-25T06:14:59;7.03;;;5.03;;
69573;SDS011;62840;52.366;5.980;2022-08-25T06:17:24;7.38;;;4.70;;
69573;SDS011;62840;52.366;5.980;2022-08-25T06:19:51;7.30;;;4.90;;
69573;SDS011;62840;52.366;5.980;2022-08-25T06:22:17;6.47;;;5.25;;
69573;SDS011;62840;52.366;5.980;2022-08-25T06:24:43;6.57;;;4.50;;
69573;SDS011;62840;52.366;5.980;2022-08-25T06:27:11;6.30;;;4.43;;
69573;SDS011;62840;52.366;5.980;2022-08-25T06:29:37;6.57;;;4.57;;
69573;SDS011;62840;52.366;5.980;2022-08-25T06:32:03;6.15;;;4.95;;
69573;SDS011;62840;52.366;5.980;2022-08-25T06:34:30;10.15;;;4.88;;
69573;SDS011;62840;52.366;5.980;2022-08-25T06:36:56;6.43;;;4.72;;
69573;SDS011;62840;52.366;5.980;2022-08-25T06:39:22;6.70;;;4.88;;
69573;SDS011;62840;52.366;5.980;2022-08-25T06:41:49;6.47;;;4.80;;
69573;SDS011;62840;52.366;5.980;2022-08-25T06:44:19;7.38;;;4.63;;
69573;SDS011;62840;52.366;5.980;2022-08-25T06:46:45;8.25;;;4.72;;
69573;SDS011;62840;52.366;5.980;2022-08-25T06:49:11;7.53;;;4.67;;
69573;SDS011;62840;52.366;5.980;2022-08-25T06:51:37;7.47;;;5.00;;
69573;SDS011;62840;52.366;5.980;2022-08-25T06:54:04;8.20;;;4.63;;
69573;SDS011;62840;52.366;5.980;2022-08-25T06:56:33;7.15;;;4.43;;
69573;SDS011;62840;52.366;5.980;2022-08-25T06:58:59;8.10;;;4.90;;
69573;SDS011;62840;52.366;5.980;2022-08-25T07:01:28;7.53;;;4.68;;
69573;SDS011;62840;52.366;5.980;2022-08-25T07:03:54;7.72;;;4.68;;
69573;SDS011;62840;52.366;5.980;2022-08-25T07:06:23;6.22;;;4.32;;
69573;SDS011;62840;52.366;5.980;2022-08-25T07:08:49;6.47;;;4.50;;
69573;SDS011;62840;52.366;5.980;2022-08-25T07:11:15;6.30;;;4.60;;
69573;SDS011;62840;52.366;5.980;2022-08-25T07:13:42;6.78;;;4.22;;
69573;SDS011;62840;52.366;5.980;2022-08-25T07:16:09;5.80;;;4.00;;
69573;SDS011;62840;52.366;5.980;2022-08-25T07:18:37;7.07;;;4.40;;
69573;SDS011;62840;52.366;5.980;2022-08-25T07:21:03;6.97;;;4.38;;
69573;SDS011;62840;52.366;5.980;2022-08-25T07:23:29;8.75;;;4.55;;
69573;SDS011;62840;52.366;5.980;2022-08-25T07:25:55;7.03;;;4.70;;
69573;SDS011;62840;52.366;5.980;2022-08-25T07:28:30;7.28;;;4.15;;
69573;SDS011;62840;52.366;5.980;2022-08-25T07:30:56;7.15;;;4.32;;
69573;SDS011;62840;52.366;5.980;2022-08-25T07:33:22;6.90;;;4.30;;
69573;SDS011;62840;52.366;5.980;2022-08-25T07:35:50;6.68;;;4.10;;
69573;SDS011;62840;52.366;5.980;2022-08-25T07:38:16;5.85;;;3.95;;
69573;SDS011;62840;52.366;5.980;2022-08-25T07:40:42;9.80;;;3.90;;
69573;SDS011;62840;52.366;5.980;2022-08-25T07:43:07;7.70;;;4.35;;
69573;SDS011;62840;52.366;5.980;2022-08-25T07:45:35;6.90;;;4.37;;
69573;SDS011;62840;52.366;5.980;2022-08-25T07:48:04;6.50;;;4.60;;
69573;SDS011;62840;52.366;5.980;2022-08-25T07:50:33;6.18;;;3.80;;
69573;SDS011;62840;52.366;5.980;2022-08-25T07:53:03;7.13;;;4.28;;
69573;SDS011;62840;52.366;5.980;2022-08-25T07:55:29;7.47;;;4.70;;
69573;SDS011;62840;52.366;5.980;2022-08-25T07:57:56;8.13;;;4.15;;
69573;SDS011;62840;52.366;5.980;2022-08-25T08:00:22;6.07;;;3.72;;
69573;SDS011;62840;52.366;5.980;2022-08-25T08:02:48;6.32;;;4.20;;
69573;SDS011;62840;52.366;5.980;2022-08-25T08:05:14;6.23;;;4.03;;
69573;SDS011;62840;52.366;5.980;2022-08-25T08:07:39;7.47;;;3.75;;
69573;SDS011;62840;52.366;5.980;2022-08-25T08:10:08;6.70;;;4.20;;
69573;SDS011;62840;52.366;5.980;2022-08-25T08:12:39;9.87;;;4.00;;
69573;SDS011;62840;52.366;5.980;2022-08-25T08:15:05;7.30;;;4.20;;
69573;SDS011;62840;52.366;5.980;2022-08-25T08:17:32;5.72;;;3.90;;
69573;SDS011;62840;52.366;5.980;2022-08-25T08:19:59;5.85;;;3.78;;
69573;SDS011;62840;52.366;5.980;2022-08-25T08:22:26;6.43;;;4.35;;
69573;SDS011;62840;52.366;5.980;2022-08-25T08:24:52;6.43;;;4.15;;
69573;SDS011;62840;52.366;5.980;2022-08-25T08:27:20;5.73;;;4.03;;
69573;SDS011;62840;52.366;5.980;2022-08-25T08:29:46;5.30;;;3.78;;
69573;SDS011;62840;52.366;5.980;2022-08-25T08:32:11;7.80;;;3.83;;
69573;SDS011;62840;52.366;5.980;2022-08-25T08:34:38;11.67;;;4.40;;
69573;SDS011;62840;52.366;5.980;2022-08-25T08:37:05;6.55;;;4.55;;
69573;SDS011;62840;52.366;5.980;2022-08-25T08:39:31;7.00;;;4.30;;
69573;SDS011;62840;52.366;5.980;2022-08-25T08:42:00;8.03;;;3.70;;
69573;SDS011;62840;52.366;5.980;2022-08-25T08:44:52;10.25;;;4.30;;
69573;SDS011;62840;52.366;5.980;2022-08-25T08:47:34;6.40;;;3.85;;
69573;SDS011;62840;52.366;5.980;2022-08-25T08:50:17;5.90;;;3.88;;
69573;SDS011;62840;52.366;5.980;2022-08-25T08:52:53;7.47;;;4.20;;
69573;SDS011;62840;52.366;5.980;2022-08-25T08:55:30;6.07;;;4.17;;
69573;SDS011;62840;52.366;5.980;2022-08-25T08:58:03;6.70;;;4.30;;
69573;SDS011;62840;52.366;5.980;2022-08-25T09:00:39;6.18;;;4.28;;
69573;SDS011;62840;52.366;5.980;2022-08-25T09:03:11;7.90;;;3.75;;
69573;SDS011;62840;52.366;5.980;2022-08-25T09:05:53;7.60;;;4.18;;
69573;SDS011;62840;52.366;5.980;2022-08-25T09:08:24;7.37;;;4.40;;
69573;SDS011;62840;52.366;5.980;2022-08-25T09:10:54;7.82;;;4.13;;
69573;SDS011;62840;52.366;5.980;2022-08-25T09:13:33;8.35;;;4.40;;
69573;SDS011;62840;52.366;5.980;2022-08-25T09:16:15;6.90;;;3.90;;
69573;SDS011;62840;52.366;5.980;2022-08-25T09:18:55;6.28;;;4.70;;
69573;SDS011;62840;52.366;5.980;2022-08-25T09:21:37;8.70;;;3.80;;
69573;SDS011;62840;52.366;5.980;2022-08-25T09:24:18;5.70;;;4.15;;
69573;SDS011;62840;52.366;5.980;2022-08-25T09:27:05;7.25;;;3.50;;
69573;SDS011;62840;52.366;5.980;2022-08-25T09:29:52;5.10;;;3.67;;
69573;SDS011;62840;52.366;5.980;2022-08-25T09:32:30;6.07;;;3.80;;
69573;SDS011;62840;52.366;5.980;2022-08-25T09:35:02;5.70;;;3.70;;
69573;SDS011;62840;52.366;5.980;2022-08-25T09:37:31;7.53;;;3.80;;
69573;SDS011;62840;52.366;5.980;2022-08-25T09:39:57;8.10;;;4.03;;
69573;SDS011;62840;52.366;5.980;2022-08-25T09:42:23;7.17;;;4.67;;
69573;SDS011;62840;52.366;5.980;2022-08-25T09:45:14;7.03;;;4.03;;
69573;SDS011;62840;52.366;5.980;2022-08-25T09:47:50;7.07;;;4.20;;
69573;SDS011;62840;52.366;5.980;2022-08-25T09:50:17;7.40;;;4.28;;
69573;SDS011;62840;52.366;5.980;2022-08-25T09:52:44;6.13;;;3.90;;
69573;SDS011;62840;52.366;5.980;2022-08-25T09:55:26;6.25;;;3.70;;
69573;SDS011;62840;52.366;5.980;2022-08-25T09:57:57;8.18;;;4.03;;
69573;SDS011;62840;52.366;5.980;2022-08-25T10:00:25;10.35;;;3.85;;
69573;SDS011;62840;52.366;5.980;2022-08-25T10:03:04;10.77;;;4.43;;
69573;SDS011;62840;52.366;5.980;2022-08-25T10:05:36;5.00;;;3.50;;
69573;SDS011;62840;52.366;5.980;2022-08-25T10:08:24;8.75;;;3.33;;
69573;SDS011;62840;52.366;5.980;2022-08-25T10:10:57;5.85;;;3.30;;
69573;SDS011;62840;52.366;5.980;2022-08-25T10:13:36;6.10;;;3.80;;
69573;SDS011;62840;52.366;5.980;2022-08-25T10:16:08;6.07;;;3.60;;
69573;SDS011;62840;52.366;5.980;2022-08-25T10:18:48;16.10;;;3.67;;
69573;SDS011;62840;52.366;5.980;2022-08-25T10:21:32;6.00;;;3.53;;
69573;SDS011;62840;52.366;5.980;2022-08-25T10:23:59;7.47;;;3.90;;
69573;SDS011;62840;52.366;5.980;2022-08-25T10:26:27;11.75;;;3.70;;
69573;SDS011;62840;52.366;5.980;2022-08-25T10:29:10;5.90;;;3.45;;
69573;SDS011;62840;52.366;5.980;2022-08-25T10:31:55;6.47;;;3.60;;
69573;SDS011;62840;52.366;5.980;2022-08-25T10:34:37;5.50;;;3.20;;
69573;SDS011;62840;52.366;5.980;2022-08-25T10:37:14;5.93;;;3.58;;
69573;SDS011;62840;52.366;5.980;2022-08-25T10:39:54;6.30;;;3.13;;
69573;SDS011;62840;52.366;5.980;2022-08-25T10:42:35;5.93;;;3.38;;
69573;SDS011;62840;52.366;5.980;2022-08-25T10:45:15;6.80;;;3.27;;
69573;SDS011;62840;52.366;5.980;2022-08-25T10:47:50;4.90;;;3.10;;
69573;SDS011;62840;52.366;5.980;2022-08-25T10:50:58;6.55;;;2.80;;
69573;SDS011;62840;52.366;5.980;2022-08-25T10:53:39;5.57;;;3.10;;
69573;SDS011;62840;52.366;5.980;2022-08-25T10:56:19;5.22;;;3.33;;
69573;SDS011;62840;52.366;5.980;2022-08-25T10:59:06;4.80;;;3.10;;
69573;SDS011;62840;52.366;5.980;2022-08-25T11:02:00;5.28;;;3.15;;
69573;SDS011;62840;52.366;5.980;2022-08-25T11:04:54;6.53;;;3.20;;
69573;SDS011;62840;52.366;5.980;2022-08-25T11:07:32;5.70;;;3.20;;
69573;SDS011;62840;52.366;5.980;2022-08-25T11:10:05;5.65;;;3.20;;
69573;SDS011;62840;52.366;5.980;2022-08-25T11:12:37;4.63;;;3.10;;
69573;SDS011;62840;52.366;5.980;2022-08-25T11:15:09;7.28;;;3.17;;
69573;SDS011;62840;52.366;5.980;2022-08-25T11:17:45;5.40;;;3.22;;
69573;SDS011;62840;52.366;5.980;2022-08-25T11:20:20;5.07;;;2.85;;
69573;SDS011;62840;52.366;5.980;2022-08-25T11:22:56;4.28;;;2.67;;
69573;SDS011;62840;52.366;5.980;2022-08-25T11:25:40;5.17;;;2.87;;
69573;SDS011;62840;52.366;5.980;2022-08-25T11:28:10;5.55;;;2.67;;
69573;SDS011;62840;52.366;5.980;2022-08-25T11:30:42;5.68;;;2.90;;
69573;SDS011;62840;52.366;5.980;2022-08-25T11:33:08;5.25;;;2.90;;
69573;SDS011;62840;52.366;5.980;2022-08-25T11:35:42;4.82;;;3.03;;
69573;SDS011;62840;52.366;5.980;2022-08-25T11:38:24;4.95;;;3.17;;
69573;SDS011;62840;52.366;5.980;2022-08-25T11:41:12;4.90;;;3.00;;
69573;SDS011;62840;52.366;5.980;2022-08-25T11:44:00;4.97;;;3.03;;
69573;SDS011;62840;52.366;5.980;2022-08-25T11:46:50;4.45;;;2.72;;
69573;SDS011;62840;52.366;5.980;2022-08-25T11:49:42;4.53;;;2.90;;
69573;SDS011;62840;52.366;5.980;2022-08-25T11:55:15;5.65;;;3.08;;
69573;SDS011;62840;52.366;5.980;2022-08-25T11:57:45;6.20;;;2.85;;
69573;SDS011;62840;52.366;5.980;2022-08-25T12:00:18;4.43;;;2.85;;
69573;SDS011;62840;52.366;5.980;2022-08-25T12:06:14;4.97;;;3.13;;
69573;SDS011;62840;52.366;5.980;2022-08-25T12:08:49;5.60;;;3.25;;
69573;SDS011;62840;52.366;5.980;2022-08-25T12:17:23;4.80;;;3.15;;
69573;SDS011;62840;52.366;5.980;2022-08-25T12:20:00;6.22;;;2.47;;
69573;SDS011;62840;52.366;5.980;2022-08-25T12:25:28;5.10;;;2.55;;
69573;SDS011;62840;52.366;5.980;2022-08-25T12:31:19;27.58;;;4.82;;
69573;SDS011;62840;52.366;5.980;2022-08-25T12:34:15;4.70;;;3.03;;
69573;SDS011;62840;52.366;5.980;2022-08-25T12:37:03;4.78;;;2.45;;
69573;SDS011;62840;52.366;5.980;2022-08-25T12:39:41;4.43;;;2.80;;
69573;SDS011;62840;52.366;5.980;2022-08-25T12:42:18;4.25;;;2.60;;
69573;SDS011;62840;52.366;5.980;2022-08-25T12:51:06;6.78;;;3.00;;
69573;SDS011;62840;52.366;5.980;2022-08-25T12:53:40;8.27;;;3.00;;
69573;SDS011;62840;52.366;5.980;2022-08-25T12:56:15;5.30;;;3.10;;
69573;SDS011;62840;52.366;5.980;2022-08-25T12:58:50;6.10;;;3.20;;
69573;SDS011;62840;52.366;5.980;2022-08-25T13:01:36;6.38;;;3.05;;
69573;SDS011;62840;52.366;5.980;2022-08-25T13:04:37;4.82;;;3.08;;
69573;SDS011;62840;52.366;5.980;2022-08-25T13:10:44;9.50;;;3.15;;
69573;SDS011;62840;52.366;5.980;2022-08-25T13:13:16;6.70;;;2.90;;
69573;SDS011;62840;52.366;5.980;2022-08-25T13:16:02;6.47;;;2.65;;
69573;SDS011;62840;52.366;5.980;2022-08-25T13:18:34;4.15;;;2.75;;
69573;SDS011;62840;52.366;5.980;2022-08-25T13:21:04;4.00;;;2.65;;
69573;SDS011;62840;52.366;5.980;2022-08-25T13:23:40;4.43;;;2.75;;
69573;SDS011;62840;52.366;5.980;2022-08-25T13:26:11;14.02;;;3.65;;
69573;SDS011;62840;52.366;5.980;2022-08-25T13:28:41;5.25;;;3.20;;
69573;SDS011;62840;52.366;5.980;2022-08-25T13:31:16;4.07;;;2.97;;
69573;SDS011;62840;52.366;5.980;2022-08-25T13:33:51;6.75;;;2.80;;
69573;SDS011;62840;52.366;5.980;2022-08-25T13:36:22;4.82;;;3.22;;
69573;SDS011;62840;52.366;5.980;2022-08-25T13:38:49;4.38;;;3.10;;
69573;SDS011;62840;52.366;5.980;2022-08-25T13:41:21;5.25;;;3.35;;
69573;SDS011;62840;52.366;5.980;2022-08-25T13:43:49;5.30;;;3.03;;
69573;SDS011;62840;52.366;5.980;2022-08-25T13:46:19;5.88;;;2.72;;
69573;SDS011;62840;52.366;5.980;2022-08-25T13:48:46;6.32;;;2.95;;
69573;SDS011;62840;52.366;5.980;2022-08-25T13:51:19;8.05;;;3.55;;
69573;SDS011;62840;52.366;5.980;2022-08-25T13:53:50;4.93;;;2.80;;
69573;SDS011;62840;52.366;5.980;2022-08-25T13:56:24;6.13;;;3.05;;
69573;SDS011;62840;52.366;5.980;2022-08-25T13:58:55;6.03;;;3.45;;
69573;SDS011;62840;52.366;5.980;2022-08-25T14:01:24;5.70;;;3.05;;
69573;SDS011;62840;52.366;5.980;2022-08-25T14:03:54;5.32;;;2.92;;
69573;SDS011;62840;52.366;5.980;2022-08-25T14:06:44;4.35;;;3.03;;
69573;SDS011;62840;52.366;5.980;2022-08-25T14:09:12;57.67;;;7.97;;
69573;SDS011;62840;52.366;5.980;2022-08-25T14:11:42;11.25;;;3.70;;
69573;SDS011;62840;52.366;5.980;2022-08-25T14:14:12;14.10;;;3.67;;
69573;SDS011;62840;52.366;5.980;2022-08-25T14:16:58;6.70;;;3.58;;
69573;SDS011;62840;52.366;5.980;2022-08-25T14:19:28;5.15;;;3.20;;
69573;SDS011;62840;52.366;5.980;2022-08-25T14:21:58;4.97;;;3.03;;
69573;SDS011;62840;52.366;5.980;2022-08-25T14:24:25;5.00;;;3.40;;
69573;SDS011;62840;52.366;5.980;2022-08-25T14:26:51;5.43;;;3.17;;
69573;SDS011;62840;52.366;5.980;2022-08-25T14:29:17;5.38;;;2.90;;
69573;SDS011;62840;52.366;5.980;2022-08-25T14:31:44;4.90;;;3.33;;
69573;SDS011;62840;52.366;5.980;2022-08-25T14:34:11;4.55;;;3.00;;
69573;SDS011;62840;52.366;5.980;2022-08-25T14:36:42;8.75;;;3.80;;
69573;SDS011;62840;52.366;5.980;2022-08-25T14:39:10;4.85;;;3.42;;
69573;SDS011;62840;52.366;5.980;2022-08-25T14:41:37;4.97;;;3.28;;
69573;SDS011;62840;52.366;5.980;2022-08-25T14:44:05;4.72;;;3.10;;
69573;SDS011;62840;52.366;5.980;2022-08-25T14:46:33;4.53;;;3.05;;
69573;SDS011;62840;52.366;5.980;2022-08-25T14:49:06;5.03;;;3.10;;
69573;SDS011;62840;52.366;5.980;2022-08-25T14:51:37;6.68;;;3.78;;
69573;SDS011;62840;52.366;5.980;2022-08-25T14:54:06;5.63;;;3.47;;
69573;SDS011;62840;52.366;5.980;2022-08-25T14:56:39;5.22;;;3.78;;
69573;SDS011;62840;52.366;5.980;2022-08-25T14:59:05;4.90;;;3.53;;
69573;SDS011;62840;52.366;5.980;2022-08-25T15:01:31;4.88;;;3.28;;
69573;SDS011;62840;52.366;5.980;2022-08-25T15:04:00;5.20;;;3.33;;
69573;SDS011;62840;52.366;5.980;2022-08-25T15:06:29;6.90;;;3.40;;
69573;SDS011;62840;52.366;5.980;2022-08-25T15:08:56;4.90;;;3.17;;
69573;SDS011;62840;52.366;5.980;2022-08-25T15:11:27;6.50;;;3.60;;
69573;SDS011;62840;52.366;5.980;2022-08-25T15:13:55;5.38;;;3.22;;
69573;SDS011;62840;52.366;5.980;2022-08-25T15:16:22;5.23;;;3.63;;
69573;SDS011;62840;52.366;5.980;2022-08-25T15:18:51;4.93;;;3.25;;
69573;SDS011;62840;52.366;5.980;2022-08-25T15:21:17;5.35;;;3.50;;
69573;SDS011;62840;52.366;5.980;2022-08-25T15:23:43;4.85;;;3.33;;
69573;SDS011;62840;52.366;5.980;2022-08-25T15:26:09;5.28;;;3.00;;
69573;SDS011;62840;52.366;5.980;2022-08-25T15:28:40;5.88;;;3.15;;
69573;SDS011;62840;52.366;5.980;2022-08-25T15:31:09;5.28;;;3.13;;
69573;SDS011;62840;52.366;5.980;2022-08-25T15:33:35;4.43;;;3.30;;
69573;SDS011;62840;52.366;5.980;2022-08-25T15:36:02;4.75;;;3.30;;